Time;durP1;ratioP1;P1;durP2;ratioP2;P2;SDS_P1;SDS_P2;PMS_P1;PMS_P2;Temp;Humidity;BMP_temperature;BMP_pressure;BME280_temperature;BME280_humidity;BME280_pressure;Samples;Min_cycle;Max_cycle;Signal;HPM_P1;HPM_P2
2022/09/06 01:44:25;;;;;;;5.72;2.58;;;;;;;19.87;58.86;96833.75;6195058;23;20412;-85
2022/09/06 01:47:00;;;;;;;4.47;2.55;;;;;;;19.84;58.75;96834.25;6196608;23;20032;-83
2022/09/06 01:49:43;;;;;;;5.43;2.80;;;;;;;19.84;59.02;96838.72;6196378;23;20077;-79
2022/09/06 01:52:20;;;;;;;5.65;3.05;;;;;;;19.82;59.09;96840.81;6195501;23;20025;-81
2022/09/06 01:55:05;;;;;;;3.72;2.75;;;;;;;19.81;59.19;96844.47;6195330;23;20017;-80
2022/09/06 04:12:30;;;;;;;;;;;;;;;19.48;60.45;96893.50;6190958;23;20020;-82
2022/09/06 04:24:17;;;;;;;4.45;3.78;;;;;;;19.39;62.07;96879.84;6223271;22;20016;-79
2022/09/06 08:22:25;;;;;;;8.23;3.95;;;;;;;20.64;65.50;96905.91;6192422;22;20032;-76
2022/09/06 08:24:53;;;;;;;4.18;3.55;;;;;;;20.70;65.38;96899.66;6184924;23;20146;-78
2022/09/06 08:27:40;;;;;;;4.10;3.17;;;;;;;20.77;65.80;96897.66;6194866;23;20035;-78
2022/09/06 08:30:18;;;;;;;8.10;3.53;;;;;;;20.81;65.81;96898.78;6203496;23;20077;-78
2022/09/06 08:32:57;;;;;;;3.45;3.15;;;;;;;20.86;66.00;96898.06;6208362;23;20044;-79
2022/09/06 08:35:33;;;;;;;4.88;3.45;;;;;;;20.92;65.42;96900.56;6207801;23;20037;-80
2022/09/06 08:38:13;;;;;;;3.53;2.78;;;;;;;21.04;65.61;96887.25;6210189;23;20036;-78
2022/09/06 08:40:43;;;;;;;4.15;3.10;;;;;;;21.17;65.78;96894.09;6224295;22;20040;-77
2022/09/06 09:53:09;;;;;;;4.35;2.20;;;;;;;30.50;41.69;96849.09;6244739;23;20008;-84
2022/09/06 09:55:38;;;;;;;2.65;2.38;;;;;;;30.93;40.91;96853.19;6243368;23;20032;-87
2022/09/06 09:58:14;;;;;;;6.72;2.33;;;;;;;31.37;39.53;96849.63;6242711;23;20020;-88
2022/09/06 10:00:44;;;;;;;5.53;2.92;;;;;;;31.34;39.66;96849.47;6240718;23;20020;-88
2022/09/06 10:03:13;;;;;;;3.13;2.40;;;;;;;31.16;40.43;96845.91;6239314;23;20047;-88
2022/09/06 10:05:54;;;;;;;4.72;2.75;;;;;;;31.10;40.20;96837.13;6235652;23;20357;-87
2022/09/06 10:08:33;;;;;;;7.05;2.33;;;;;;;30.99;40.37;96838.50;6233879;23;20024;-87
2022/09/06 10:11:01;;;;;;;5.95;2.90;;;;;;;30.88;40.98;96839.88;6233940;23;20035;-88
2022/09/06 10:13:30;;;;;;;4.85;2.40;;;;;;;30.55;41.47;96842.78;6224542;23;20012;-83
2022/09/06 10:16:01;;;;;;;5.40;2.35;;;;;;;30.19;42.43;96838.94;6215212;23;20020;-76
2022/09/06 10:18:31;;;;;;;3.70;2.90;;;;;;;29.86;43.65;96846.38;6214520;23;20021;-76
2022/09/06 10:21:01;;;;;;;7.00;3.25;;;;;;;29.66;44.02;96850.25;6213050;23;20024;-75
2022/09/06 10:23:39;;;;;;;6.43;3.60;;;;;;;29.47;44.45;96839.59;6214834;23;20024;-76
2022/09/06 10:26:32;;;;;;;2.72;2.53;;;;;;;29.50;45.67;96844.38;6219349;23;20415;-80
2022/09/06 10:29:05;;;;;;;5.85;3.00;;;;;;;29.69;45.25;96846.19;6224794;23;20024;-86
2022/09/06 10:31:48;;;;;;;3.83;2.25;;;;;;;30.14;44.19;96846.34;6224350;23;20024;-87
2022/09/06 10:34:58;;;;;;;6.30;2.80;;;;;;;30.44;43.07;96844.09;6231933;23;20071;-86
2022/09/06 10:37:41;;;;;;;4.45;2.78;;;;;;;30.38;42.34;96852.28;6175063;23;20025;-85
2022/09/06 10:40:11;;;;;;;4.13;2.60;;;;;;;30.27;42.69;96842.84;6177318;23;20017;-86
2022/09/06 10:42:45;;;;;;;3.75;2.60;;;;;;;30.23;43.09;96838.34;6217343;23;20020;-87
2022/09/06 10:45:27;;;;;;;4.57;3.33;;;;;;;30.30;43.59;96833.38;6233074;23;20020;-85
2022/09/06 11:39:12;;;;;;;5.43;2.63;;;;;;;30.77;39.01;96809.69;6228255;22;19922;-83
2022/09/06 11:41:45;;;;;;;4.47;2.45;;;;;;;30.74;40.89;96810.28;6244506;23;20009;-83
2022/09/06 11:47:08;;;;;;;6.72;2.40;;;;;;;30.66;40.50;96803.75;6162077;23;20028;-73
2022/09/06 11:49:40;;;;;;;5.68;2.08;;;;;;;30.53;39.86;96802.69;6155356;23;20059;-73
2022/09/06 11:52:44;;;;;;;5.90;1.92;;;;;;;30.38;40.09;96793.09;6206630;23;20012;-83
2022/09/06 12:02:11;;;;;;;5.82;2.03;;;;;;;30.11;39.02;96785.06;6216399;22;20020;-82
2022/09/06 12:05:30;;;;;;;5.55;1.80;;;;;;;29.97;39.49;96783.22;6214539;23;20005;-83
2022/09/06 12:11:48;;;;;;;7.03;1.90;;;;;;;29.78;39.54;96780.69;6214830;23;20073;-82
2022/09/06 12:17:52;;;;;;;4.05;1.70;;;;;;;29.77;39.52;96783.66;6213053;23;20052;-82
2022/09/06 13:02:12;;;;;;;3.88;1.60;;;;;;;29.21;42.60;96782.06;6205743;22;20068;-80
2022/09/06 13:04:43;;;;;;;7.50;2.03;;;;;;;29.16;40.53;96780.25;6205387;23;20025;-79
2022/09/06 13:07:17;;;;;;;5.30;2.28;;;;;;;29.11;44.63;96773.09;6199567;23;20020;-82
2022/09/06 13:10:45;;;;;;;4.78;2.30;;;;;;;29.09;43.92;96775.28;6164657;23;20501;-82
2022/09/06 13:13:23;;;;;;;6.53;2.33;;;;;;;29.07;43.32;96772.06;6164034;23;20025;-82
2022/09/06 13:16:05;;;;;;;4.50;1.92;;;;;;;29.06;44.08;96767.81;6160477;23;20032;-81
2022/09/06 13:18:38;;;;;;;7.55;2.20;;;;;;;29.03;43.86;96765.69;6162814;23;20032;-82
2022/09/06 13:21:07;;;;;;;;;;;;;;;29.05;42.87;96762.72;6160997;23;20021;-81
2022/09/06 13:49:57;;;;;;;7.88;2.25;;;;;;;28.69;41.98;96739.22;6231039;22;20012;-81
2022/09/06 13:52:27;;;;;;;8.93;1.92;;;;;;;28.64;41.68;96732.00;6241942;23;20000;-81
2022/09/06 13:57:38;;;;;;;7.53;1.75;;;;;;;28.57;41.08;96730.81;6243147;23;20008;-82
2022/09/06 14:00:10;;;;;;;3.20;1.60;;;;;;;28.51;41.53;96732.78;6221826;22;20004;-80
2022/09/06 14:02:48;;;;;;;4.35;2.03;;;;;;;28.48;41.53;96725.34;6230630;22;20047;-80
2022/09/06 14:05:37;;;;;;;5.53;2.47;;;;;;;28.43;41.79;96722.72;6237138;22;20008;-78
2022/09/06 14:08:19;;;;;;;6.35;2.25;;;;;;;28.38;41.70;96722.78;6236406;22;20016;-80
2022/09/06 14:10:48;;;;;;;5.43;2.25;;;;;;;28.33;41.79;96719.09;6243288;23;20008;-81
2022/09/06 14:13:17;;;;;;;5.97;1.98;;;;;;;28.31;41.71;96717.78;6243311;23;20043;-82
2022/09/06 14:15:46;;;;;;;3.50;2.20;;;;;;;28.26;41.11;96709.84;6243439;23;20036;-80
2022/09/06 14:18:14;;;;;;;4.25;1.88;;;;;;;28.22;41.47;96704.25;6243222;23;20008;-80
2022/09/06 14:20:51;;;;;;;3.78;1.90;;;;;;;28.19;41.62;96696.81;6244479;23;20016;-81
2022/09/06 14:23:22;;;;;;;6.82;2.00;;;;;;;28.16;41.88;96697.38;6245483;23;20015;-80
2022/09/06 14:25:55;;;;;;;4.60;1.75;;;;;;;28.14;41.77;96697.69;6245516;23;20015;-81
2022/09/06 14:28:24;;;;;;;3.20;1.77;;;;;;;28.14;42.04;96688.81;6245906;23;20019;-81
2022/09/06 14:30:52;;;;;;;6.32;2.28;;;;;;;28.12;41.98;96682.97;6245562;23;20009;-80
2022/09/06 14:33:22;;;;;;;2.92;1.90;;;;;;;28.11;41.82;96692.09;6246013;23;20038;-81
2022/09/06 14:35:51;;;;;;;4.57;1.70;;;;;;;28.10;41.55;96687.84;6245642;23;20047;-81
2022/09/06 14:38:20;;;;;;;3.10;1.52;;;;;;;28.10;41.45;96691.31;6245435;23;20022;-81
2022/09/06 14:40:49;;;;;;;6.93;1.70;;;;;;;28.07;40.97;96697.22;6245673;23;20009;-81
2022/09/06 14:45:53;;;;;;;2.10;1.40;;;;;;;28.03;40.60;96696.25;6241986;22;20068;-80
2022/09/06 15:37:53;;;;;;;2.22;1.45;;;;;;;27.50;41.52;96673.09;6235574;22;20032;-80
2022/09/06 15:40:25;;;;;;;4.43;1.50;;;;;;;27.47;41.44;96673.69;6238168;22;20028;-80
2022/09/06 15:42:53;;;;;;;6.15;2.03;;;;;;;27.44;42.40;96671.59;6273731;23;20080;-80
2022/09/06 15:48:03;;;;;;;5.30;1.80;;;;;;;27.39;42.36;96666.28;6222767;22;20357;-79
2022/09/06 15:50:31;;;;;;;5.68;1.95;;;;;;;27.36;42.22;96660.75;6217093;23;20079;-77
2022/09/06 15:53:19;;;;;;;2.63;1.67;;;;;;;27.32;42.79;96671.22;6215477;23;20079;-78
2022/09/06 15:55:54;;;;;;;3.97;1.63;;;;;;;27.27;42.47;96674.75;6215993;23;20020;-75
2022/09/06 15:58:22;;;;;;;5.53;1.55;;;;;;;27.22;42.76;96660.63;6229391;23;20024;-75
2022/09/06 16:01:01;;;;;;;4.90;1.80;;;;;;;27.19;42.87;96661.19;6232911;23;20047;-76
2022/09/06 16:03:28;;;;;;;7.22;2.25;;;;;;;27.15;43.55;96660.16;6219999;23;20020;-74
2022/09/06 16:06:01;;;;;;;4.32;1.40;;;;;;;27.12;43.47;96664.22;6218343;23;20025;-76
2022/09/06 16:08:52;;;;;;;5.43;1.70;;;;;;;27.10;43.61;96659.13;6216439;23;20103;-78
2022/09/06 16:11:22;;;;;;;3.25;1.25;;;;;;;27.08;43.79;96650.59;6215438;23;20099;-77
2022/09/06 16:13:50;;;;;;;7.00;2.40;;;;;;;27.06;44.07;96654.63;6216385;23;20447;-76
2022/09/06 16:16:18;;;;;;;5.32;1.90;;;;;;;27.05;44.08;96658.41;6219262;23;20051;-76
2022/09/06 16:18:46;;;;;;;4.20;1.90;;;;;;;27.04;44.40;96646.09;6219744;23;20067;-76
2022/09/06 16:21:16;;;;;;;3.60;2.42;;;;;;;27.03;45.29;96655.22;6215117;23;20051;-75
2022/09/06 16:23:49;;;;;;;3.38;1.70;;;;;;;27.02;45.08;96649.06;6215512;23;20029;-76
2022/09/06 16:26:18;;;;;;;4.45;1.88;;;;;;;27.00;45.08;96645.84;6217605;22;20025;-76
2022/09/06 16:28:49;;;;;;;5.85;1.63;;;;;;;26.95;45.11;96645.94;6216012;23;20075;-76
2022/09/06 16:31:18;;;;;;;8.98;1.85;;;;;;;26.90;45.28;96643.31;6216305;23;20021;-77
2022/09/06 16:33:47;;;;;;;7.53;1.80;;;;;;;26.85;45.10;96632.66;6215946;23;20021;-75
2022/09/06 16:36:15;;;;;;;3.63;1.98;;;;;;;26.82;45.41;96630.56;6215268;23;20028;-76
2022/09/06 16:38:43;;;;;;;8.30;2.83;;;;;;;26.79;45.34;96620.44;6216113;23;20020;-76
2022/09/06 16:41:14;;;;;;;3.60;1.75;;;;;;;26.75;46.00;96625.56;6215244;23;20083;-75
2022/09/06 16:43:43;;;;;;;3.97;2.38;;;;;;;26.71;46.64;96628.00;6215270;23;20503;-74
2022/09/06 16:46:12;;;;;;;5.55;1.60;;;;;;;26.69;47.36;96618.66;6215371;23;20074;-75
2022/09/06 16:48:40;;;;;;;4.65;2.40;;;;;;;26.63;47.04;96615.25;6215412;23;20016;-74
2022/09/06 16:51:09;;;;;;;4.32;1.83;;;;;;;26.60;47.45;96617.69;6214564;23;20500;-74
2022/09/06 16:53:39;;;;;;;4.25;2.10;;;;;;;26.56;48.94;96609.44;6215812;23;20031;-75
2022/09/06 16:56:08;;;;;;;3.63;1.88;;;;;;;26.54;49.13;96613.44;6215434;23;20025;-75
2022/09/06 16:58:35;;;;;;;4.13;1.80;;;;;;;26.50;49.30;96607.88;6215124;23;20468;-74
2022/09/06 17:01:06;;;;;;;6.65;1.88;;;;;;;26.45;49.86;96603.38;6215052;23;20051;-75
2022/09/06 17:03:35;;;;;;;5.95;2.22;;;;;;;26.40;49.82;96605.31;6215085;23;20020;-74
2022/09/06 17:06:03;;;;;;;3.42;1.75;;;;;;;26.35;50.41;96602.66;6215053;23;20029;-74
2022/09/06 17:08:31;;;;;;;6.85;1.73;;;;;;;26.28;50.40;96601.16;6215079;23;20016;-74
2022/09/06 17:11:00;;;;;;;4.60;1.77;;;;;;;26.22;50.20;96607.63;6216287;23;20084;-75
2022/09/06 17:13:29;;;;;;;4.68;1.67;;;;;;;26.18;50.46;96611.16;6215971;23;20058;-75
2022/09/06 17:18:52;;;;;;;3.50;1.73;;;;;;;26.08;51.82;96617.38;6214909;23;20017;-74
2022/09/06 17:21:21;;;;;;;6.38;2.30;;;;;;;26.01;51.86;96606.22;6214508;23;20024;-75
2022/09/06 17:23:49;;;;;;;4.85;2.17;;;;;;;25.94;51.97;96611.88;6215209;23;20028;-74
2022/09/06 17:26:18;;;;;;;6.03;2.08;;;;;;;25.87;51.59;96616.72;6215079;23;20021;-75
2022/09/06 17:28:45;;;;;;;7.00;2.58;;;;;;;25.79;51.78;96610.09;6215384;23;20048;-75
2022/09/06 17:31:14;;;;;;;3.70;1.83;;;;;;;25.73;51.45;96616.53;6215090;23;20361;-74
2022/09/06 17:33:42;;;;;;;5.05;1.95;;;;;;;25.67;51.12;96612.31;6215192;23;20212;-75
2022/09/06 17:36:13;;;;;;;3.45;2.25;;;;;;;25.60;51.13;96620.63;6215151;23;20075;-75
2022/09/06 17:38:41;;;;;;;3.50;1.90;;;;;;;25.54;51.25;96626.28;6216334;23;20021;-77
2022/09/06 17:41:18;;;;;;;6.72;2.17;;;;;;;25.45;51.38;96616.22;6214787;23;20234;-77
2022/09/06 17:43:47;;;;;;;3.83;1.90;;;;;;;25.37;51.41;96624.00;6215331;23;20036;-80
2022/09/06 17:46:14;;;;;;;6.18;2.22;;;;;;;25.27;51.60;96617.63;6216376;23;20024;-76
2022/09/06 17:48:42;;;;;;;5.78;1.67;;;;;;;25.19;51.65;96618.22;6215084;23;20051;-74
2022/09/06 17:51:11;;;;;;;3.65;1.83;;;;;;;25.13;51.89;96621.16;6215186;23;20548;-75
2022/09/06 17:53:39;;;;;;;5.40;1.83;;;;;;;25.05;51.90;96617.97;6215220;23;20055;-76
2022/09/06 17:56:09;;;;;;;3.60;1.80;;;;;;;24.97;52.13;96615.91;6214222;23;20055;-74
2022/09/06 17:58:37;;;;;;;3.70;2.25;;;;;;;24.91;52.32;96619.66;6214376;23;20020;-75
2022/09/06 18:20:17;;;;;;;4.43;2.13;;;;;;;24.24;53.16;96635.00;6200171;22;20016;-79
2022/09/06 18:22:44;;;;;;;5.75;2.30;;;;;;;24.19;53.51;96629.66;6214824;23;20020;-78
2022/09/06 18:25:12;;;;;;;6.72;2.33;;;;;;;24.14;53.61;96630.47;6214275;23;20480;-79
2022/09/06 20:16:50;;;;;;;5.07;3.47;;;;;;;23.28;62.92;96578.72;6184035;23;20029;-78
2022/09/06 20:19:18;;;;;;;8.35;4.18;;;;;;;23.27;62.97;96585.13;6185498;23;20092;-78
2022/09/06 20:21:46;;;;;;;8.73;3.78;;;;;;;23.27;63.25;96592.31;6185425;23;20401;-77
2022/09/06 20:24:13;;;;;;;7.78;3.88;;;;;;;23.24;63.08;96582.97;6185366;23;20458;-77
2022/09/06 20:57:00;;;;;;;9.82;3.53;;;;;;;22.96;63.33;96574.38;6214152;23;20020;-81
2022/09/06 20:59:39;;;;;;;6.53;3.92;;;;;;;22.96;63.33;96579.69;6214116;23;20012;-82
2022/09/06 21:02:14;;;;;;;10.45;4.10;;;;;;;22.96;62.76;96585.00;6213519;23;20024;-82
2022/09/06 21:04:45;;;;;;;6.65;4.00;;;;;;;22.94;62.87;96592.44;6214315;23;20024;-82
2022/09/06 21:07:16;;;;;;;5.35;3.80;;;;;;;22.92;62.91;96586.59;6235549;22;20038;-79
2022/09/06 21:09:45;;;;;;;6.53;3.63;;;;;;;22.87;63.12;96596.38;6241413;23;20036;-79
2022/09/06 21:12:13;;;;;;;7.07;3.92;;;;;;;22.80;62.95;96591.31;6216218;23;20047;-79
2022/09/06 21:14:41;;;;;;;9.10;4.13;;;;;;;22.76;63.02;96595.56;6239690;23;20025;-79
2022/09/06 21:17:10;;;;;;;6.30;3.45;;;;;;;22.71;63.16;96591.00;6241158;23;20027;-79
2022/09/06 21:19:39;;;;;;;10.93;3.92;;;;;;;22.66;63.28;96598.97;6237094;23;20437;-79
2022/09/06 21:22:06;;;;;;;7.65;3.58;;;;;;;22.62;63.35;96596.03;6236352;23;20029;-79
2022/09/06 21:24:37;;;;;;;6.63;3.15;;;;;;;22.61;63.39;96599.75;6236781;23;20025;-79
2022/09/06 21:27:10;;;;;;;6.97;3.15;;;;;;;22.61;63.47;96604.28;6235443;23;20023;-79
2022/09/06 21:29:38;;;;;;;7.63;3.67;;;;;;;22.59;63.50;96603.72;6208931;23;20072;-79
2022/09/06 21:32:06;;;;;;;7.07;3.60;;;;;;;22.54;63.34;96609.81;6238351;23;20031;-79
2022/09/06 21:34:34;;;;;;;6.00;3.63;;;;;;;22.50;63.33;96603.41;6240226;23;20068;-79
2022/09/06 21:37:02;;;;;;;8.88;3.95;;;;;;;22.44;63.43;96599.13;6238270;23;20044;-79
2022/09/06 21:39:30;;;;;;;8.85;4.22;;;;;;;22.42;63.83;96603.91;6239689;23;20051;-79
2022/09/06 21:42:00;;;;;;;6.78;3.50;;;;;;;22.41;63.89;96600.44;6239099;23;20031;-79
2022/09/06 21:44:29;;;;;;;7.15;3.67;;;;;;;22.44;63.89;96607.09;6239732;23;20031;-79
2022/09/06 21:47:00;;;;;;;5.50;3.50;;;;;;;22.45;63.46;96600.72;6239359;23;20021;-79
2022/09/06 21:49:27;;;;;;;12.40;4.20;;;;;;;22.48;63.50;96600.22;6239715;23;20024;-79
2022/09/06 21:51:55;;;;;;;6.50;3.33;;;;;;;22.46;63.27;96602.34;6232823;23;20017;-79
2022/09/06 21:54:24;;;;;;;5.43;3.47;;;;;;;22.45;63.44;96597.25;6237751;23;20055;-79
2022/09/06 21:56:52;;;;;;;5.68;3.20;;;;;;;22.41;63.44;96596.97;6238513;23;20076;-79
2022/09/06 21:59:20;;;;;;;7.85;3.85;;;;;;;22.39;63.68;96596.44;6230866;23;20047;-79
2022/09/06 22:01:51;;;;;;;6.53;3.58;;;;;;;22.41;63.60;96610.25;6240599;23;20004;-79
2022/09/06 22:04:20;;;;;;;5.93;3.60;;;;;;;22.40;63.50;96606.00;6243152;23;20008;-79
2022/09/06 22:06:48;;;;;;;6.65;4.05;;;;;;;22.36;63.52;96602.25;6240486;23;20613;-79
2022/09/06 22:09:16;;;;;;;6.53;3.15;;;;;;;22.31;63.55;96600.38;6230454;23;20437;-79
2022/09/06 22:11:44;;;;;;;7.32;3.55;;;;;;;22.28;63.67;96598.25;6234682;23;20021;-79
2022/09/06 22:14:14;;;;;;;6.60;3.97;;;;;;;22.26;63.31;96605.66;6229015;23;20031;-80
2022/09/06 22:16:42;;;;;;;5.53;2.90;;;;;;;22.24;63.00;96606.97;6236275;23;20021;-79
2022/09/06 22:19:12;;;;;;;6.13;3.38;;;;;;;22.26;62.91;96607.50;6228554;23;20400;-79
2022/09/06 22:21:40;;;;;;;5.38;3.17;;;;;;;22.26;62.69;96607.50;6235288;23;20048;-79
2022/09/06 22:24:13;;;;;;;9.10;3.08;;;;;;;22.26;63.13;96604.84;6228937;23;20020;-80
2022/09/06 22:26:41;;;;;;;6.53;2.88;;;;;;;22.27;62.79;96593.19;6236465;23;20032;-79
2022/09/06 22:29:12;;;;;;;8.77;3.13;;;;;;;22.28;62.26;96584.13;6236287;23;20024;-79
2022/09/06 22:31:40;;;;;;;3.88;2.63;;;;;;;22.25;61.98;96582.00;6233021;23;20004;-79
2022/09/06 22:34:09;;;;;;;6.95;2.95;;;;;;;22.23;61.93;96576.94;6234508;23;20082;-79
2022/09/06 22:36:39;;;;;;;3.92;2.72;;;;;;;22.24;62.41;96575.91;6229492;23;20051;-80
2022/09/06 22:39:08;;;;;;;5.97;2.70;;;;;;;22.25;61.75;96568.72;6237125;23;20029;-79
2022/09/06 22:41:36;;;;;;;4.68;2.83;;;;;;;22.27;62.01;96574.59;6236351;23;20024;-79
2022/09/06 22:44:05;;;;;;;4.55;3.08;;;;;;;22.29;62.41;96569.81;6235164;23;20160;-79
2022/09/06 22:46:34;;;;;;;4.47;2.90;;;;;;;22.30;63.89;96571.41;6238890;23;20072;-79
2022/09/06 22:49:04;;;;;;;4.97;3.33;;;;;;;22.31;63.08;96562.38;6237017;23;20020;-79
2022/09/06 22:51:32;;;;;;;4.63;3.25;;;;;;;22.30;63.10;96550.13;6241574;23;20059;-79
2022/09/06 22:54:02;;;;;;;5.45;3.10;;;;;;;22.23;61.71;96553.03;6236474;23;20004;-79
2022/09/06 22:56:30;;;;;;;4.80;3.00;;;;;;;22.18;62.13;96548.47;6240905;23;20059;-79
2022/09/06 22:58:58;;;;;;;4.47;2.80;;;;;;;22.20;62.88;96548.22;6238817;23;20055;-79
2022/09/06 23:01:27;;;;;;;5.90;2.88;;;;;;;22.19;61.46;96560.69;6240348;23;20039;-79
2022/09/06 23:03:56;;;;;;;5.20;2.78;;;;;;;22.20;62.58;96561.50;6233950;23;20021;-79
2022/09/06 23:06:25;;;;;;;5.80;3.08;;;;;;;22.18;61.58;96559.09;6233473;23;20024;-79
2022/09/06 23:08:53;;;;;;;3.53;2.55;;;;;;;22.16;61.67;96552.44;6236942;23;20048;-79
2022/09/06 23:11:22;;;;;;;4.10;2.58;;;;;;;22.14;61.35;96557.19;6233830;23;20451;-79
2022/09/06 23:13:55;;;;;;;3.08;2.35;;;;;;;22.13;61.76;96559.06;6239823;23;20020;-79
2022/09/06 23:16:24;;;;;;;4.20;2.97;;;;;;;22.14;61.96;96558.00;6241222;23;20073;-79
2022/09/06 23:18:53;;;;;;;4.13;2.78;;;;;;;22.15;61.54;96554.28;6241206;23;20028;-79
2022/09/06 23:21:23;;;;;;;5.10;2.42;;;;;;;22.13;60.20;96559.06;6234959;23;20021;-79
2022/09/06 23:23:55;;;;;;;6.40;2.55;;;;;;;22.10;59.39;96556.09;6236525;23;20031;-79
2022/09/06 23:26:27;;;;;;;3.97;2.22;;;;;;;22.04;58.90;96552.63;6240622;23;20080;-79
2022/09/06 23:28:56;;;;;;;5.15;2.40;;;;;;;21.99;58.87;96544.63;6239778;23;20092;-79
2022/09/06 23:31:26;;;;;;;4.68;2.22;;;;;;;21.93;58.95;96546.47;6239697;23;20021;-79
2022/09/06 23:33:56;;;;;;;7.15;2.42;;;;;;;21.90;58.91;96546.16;6233462;23;20024;-79
2022/09/06 23:36:24;;;;;;;7.68;2.88;;;;;;;21.88;58.93;96548.25;6239045;23;20048;-79
2022/09/06 23:38:52;;;;;;;3.85;2.05;;;;;;;21.91;59.72;96553.88;6239221;23;20020;-79
2022/09/06 23:41:20;;;;;;;3.42;2.13;;;;;;;21.92;58.89;96547.50;6232222;23;20078;-79
2022/09/06 23:43:49;;;;;;;4.30;2.05;;;;;;;21.91;59.23;96548.56;6235562;23;20352;-79
2022/09/06 23:46:18;;;;;;;6.90;2.88;;;;;;;21.92;59.09;96550.16;6236204;23;20023;-79
2022/09/06 23:48:46;;;;;;;4.70;1.90;;;;;;;21.89;58.11;96533.94;6229876;23;20044;-79
2022/09/06 23:51:14;;;;;;;3.20;1.75;;;;;;;21.81;57.90;96535.22;6235564;23;20022;-79
2022/09/06 23:53:42;;;;;;;6.32;2.25;;;;;;;21.75;58.06;96533.56;6229659;23;20020;-79
2022/09/06 23:56:10;;;;;;;4.43;1.80;;;;;;;21.73;58.21;96530.38;6231653;23;20021;-79
2022/09/06 23:58:38;;;;;;;2.85;1.90;;;;;;;21.70;57.56;96522.91;6235152;23;20483;-79
